sensor_id;sensor_type;location;lat;lon;timestamp;pressure;altitude;pressure_sealevel;temperature;humidity
76311;BME280;65120;59.304;18.294;2023-04-15T00:02:17;102240.63;;;3.48;69.09
76311;BME280;65120;59.304;18.294;2023-04-15T00:04:44;102247.50;;;3.47;69.12
76311;BME280;65120;59.304;18.294;2023-04-15T00:07:12;102243.16;;;3.46;69.53
76311;BME280;65120;59.304;18.294;2023-04-15T00:09:40;102245.78;;;3.48;69.34
76311;BME280;65120;59.304;18.294;2023-04-15T00:12:07;102245.78;;;3.48;69.35
76311;BME280;65120;59.304;18.294;2023-04-15T00:14:34;102249.19;;;3.47;69.14
76311;BME280;65120;59.304;18.294;2023-04-15T00:17:01;102256.13;;;3.48;69.59
76311;BME280;65120;59.304;18.294;2023-04-15T00:19:28;102249.09;;;3.44;69.52
76311;BME280;65120;59.304;18.294;2023-04-15T00:21:55;102250.09;;;3.47;69.46
76311;BME280;65120;59.304;18.294;2023-04-15T00:24:22;102251.66;;;3.44;69.22
76311;BME280;65120;59.304;18.294;2023-04-15T00:26:50;102250.03;;;3.46;69.51
76311;BME280;65120;59.304;18.294;2023-04-15T00:29:17;102253.44;;;3.45;69.72
76311;BME280;65120;59.304;18.294;2023-04-15T00:31:44;102251.72;;;3.45;69.57
76311;BME280;65120;59.304;18.294;2023-04-15T00:34:11;102257.78;;;3.46;69.33
76311;BME280;65120;59.304;18.294;2023-04-15T00:36:39;102250.84;;;3.45;69.60
76311;BME280;65120;59.304;18.294;2023-04-15T00:39:06;102255.13;;;3.44;69.34
76311;BME280;65120;59.304;18.294;2023-04-15T00:41:33;102253.38;;;3.43;69.67
76311;BME280;65120;59.304;18.294;2023-04-15T00:44:05;102236.69;;;3.33;69.51
76311;BME280;65120;59.304;18.294;2023-04-15T00:46:34;102247.34;;;3.43;69.23
76311;BME280;65120;59.304;18.294;2023-04-15T00:49:03;102248.19;;;3.42;69.72
76311;BME280;65120;59.304;18.294;2023-04-15T00:51:30;102243.81;;;3.41;69.69
76311;BME280;65120;59.304;18.294;2023-04-15T00:54:00;102243.81;;;3.41;69.95
76311;BME280;65120;59.304;18.294;2023-04-15T00:56:28;102243.72;;;3.37;69.29
76311;BME280;65120;59.304;18.294;2023-04-15T00:58:55;102238.53;;;3.37;69.63
76311;BME280;65120;59.304;18.294;2023-04-15T01:01:24;102241.13;;;3.37;69.79
76311;BME280;65120;59.304;18.294;2023-04-15T01:03:51;102243.72;;;3.37;69.83
76311;BME280;65120;59.304;18.294;2023-04-15T01:06:18;102238.44;;;3.34;69.92
76311;BME280;65120;59.304;18.294;2023-04-15T01:08:45;102243.72;;;3.37;70.07
76311;BME280;65120;59.304;18.294;2023-04-15T01:11:13;102248.00;;;3.37;70.18
76311;BME280;65120;59.304;18.294;2023-04-15T01:13:40;102240.16;;;3.34;69.61
76311;BME280;65120;59.304;18.294;2023-04-15T01:16:07;102243.69;;;3.36;70.03
76311;BME280;65120;59.304;18.294;2023-04-15T01:18:36;102247.94;;;3.35;70.31
76311;BME280;65120;59.304;18.294;2023-04-15T01:21:04;102247.03;;;3.33;69.78
76311;BME280;65120;59.304;18.294;2023-04-15T01:23:31;102241.91;;;3.35;69.99
76311;BME280;65120;59.304;18.294;2023-04-15T01:26:00;102244.53;;;3.36;69.71
76311;BME280;65120;59.304;18.294;2023-04-15T01:28:27;102247.94;;;3.35;70.27
76311;BME280;65120;59.304;18.294;2023-04-15T01:31:05;102236.69;;;3.33;70.25
76311;BME280;65120;59.304;18.294;2023-04-15T01:33:32;102242.88;;;3.38;69.88
76311;BME280;65120;59.304;18.294;2023-04-15T01:35:59;102241.13;;;3.37;70.18
76311;BME280;65120;59.304;18.294;2023-04-15T01:38:26;102239.47;;;3.40;70.05
76311;BME280;65120;59.304;18.294;2023-04-15T01:40:53;102241.22;;;3.41;69.95
76311;BME280;65120;59.304;18.294;2023-04-15T01:43:21;102228.28;;;3.39;70.18
76311;BME280;65120;59.304;18.294;2023-04-15T01:45:48;102233.47;;;3.41;69.91
76311;BME280;65120;59.304;18.294;2023-04-15T01:48:15;102245.69;;;3.45;69.84
76311;BME280;65120;59.304;18.294;2023-04-15T01:50:42;102247.44;;;3.46;70.52
76311;BME280;65120;59.304;18.294;2023-04-15T01:53:09;102243.16;;;3.46;70.13
76311;BME280;65120;59.304;18.294;2023-04-15T01:55:36;102242.19;;;3.44;70.20
76311;BME280;65120;59.304;18.294;2023-04-15T01:58:03;102240.47;;;3.43;70.08
76311;BME280;65120;59.304;18.294;2023-04-15T02:00:32;102245.78;;;3.48;70.25
76311;BME280;65120;59.304;18.294;2023-04-15T02:02:58;102250.03;;;3.46;70.46
76311;BME280;65120;59.304;18.294;2023-04-15T02:05:25;102250.97;;;3.48;70.73
76311;BME280;65120;59.304;18.294;2023-04-15T02:07:52;102250.91;;;3.46;70.60
76311;BME280;65120;59.304;18.294;2023-04-15T02:10:19;102253.59;;;3.49;70.70
76311;BME280;65120;59.304;18.294;2023-04-15T02:12:46;102251.88;;;3.50;70.25
76311;BME280;65120;59.304;18.294;2023-04-15T02:15:13;102251.88;;;3.50;70.26
76311;BME280;65120;59.304;18.294;2023-04-15T02:17:42;102256.25;;;3.52;70.55
76311;BME280;65120;59.304;18.294;2023-04-15T02:20:10;102239.78;;;3.49;70.32
76311;BME280;65120;59.304;18.294;2023-04-15T02:22:37;102246.78;;;3.51;70.52
76311;BME280;65120;59.304;18.294;2023-04-15T02:25:05;102254.69;;;3.56;70.33
76311;BME280;65120;59.304;18.294;2023-04-15T02:27:32;102253.78;;;3.55;70.85
76311;BME280;65120;59.304;18.294;2023-04-15T02:29:59;102256.44;;;3.57;70.58
76311;BME280;65120;59.304;18.294;2023-04-15T02:32:26;102250.44;;;3.58;70.67
76311;BME280;65120;59.304;18.294;2023-04-15T02:34:54;102247.84;;;3.58;70.54
76311;BME280;65120;59.304;18.294;2023-04-15T02:37:21;102254.78;;;3.59;70.62
76311;BME280;65120;59.304;18.294;2023-04-15T02:39:51;102252.25;;;3.60;70.90
76311;BME280;65120;59.304;18.294;2023-04-15T02:42:18;102247.75;;;3.55;70.59
76311;BME280;65120;59.304;18.294;2023-04-15T02:44:46;102260.09;;;3.64;70.29
76311;BME280;65120;59.304;18.294;2023-04-15T02:47:12;102233.00;;;3.52;70.40
76311;BME280;65120;59.304;18.294;2023-04-15T02:49:40;102263.69;;;3.67;70.80
76311;BME280;65120;59.304;18.294;2023-04-15T02:52:08;102254.13;;;3.65;70.38
76311;BME280;65120;59.304;18.294;2023-04-15T02:54:35;102260.28;;;3.70;70.77
76311;BME280;65120;59.304;18.294;2023-04-15T02:57:02;102257.81;;;3.73;70.53
76311;BME280;65120;59.304;18.294;2023-04-15T02:59:31;102260.47;;;3.74;70.06
76311;BME280;65120;59.304;18.294;2023-04-15T03:01:58;102259.59;;;3.74;70.61
76311;BME280;65120;59.304;18.294;2023-04-15T03:04:25;102265.72;;;3.77;70.17
76311;BME280;65120;59.304;18.294;2023-04-15T03:06:54;102270.13;;;3.80;70.50
76311;BME280;65120;59.304;18.294;2023-04-15T03:09:22;102266.69;;;3.81;70.26
76311;BME280;65120;59.304;18.294;2023-04-15T03:11:49;102268.47;;;3.82;69.89
76311;BME280;65120;59.304;18.294;2023-04-15T03:14:17;102264.19;;;3.82;70.22
76311;BME280;65120;59.304;18.294;2023-04-15T03:16:44;102258.16;;;3.83;70.03
76311;BME280;65120;59.304;18.294;2023-04-15T03:19:11;102264.22;;;3.84;70.51
76311;BME280;65120;59.304;18.294;2023-04-15T03:21:38;102260.06;;;3.88;70.26
76311;BME280;65120;59.304;18.294;2023-04-15T03:24:05;102261.75;;;3.87;70.57
76311;BME280;65120;59.304;18.294;2023-04-15T03:26:33;102252.28;;;3.88;70.34
76311;BME280;65120;59.304;18.294;2023-04-15T03:29:00;102248.88;;;3.89;70.50
76311;BME280;65120;59.304;18.294;2023-04-15T03:31:27;102249.75;;;3.89;70.16
76311;BME280;65120;59.304;18.294;2023-04-15T03:33:54;102254.88;;;3.88;70.03
76311;BME280;65120;59.304;18.294;2023-04-15T03:36:21;102217.88;;;3.63;70.54
76311;BME280;65120;59.304;18.294;2023-04-15T03:38:47;102254.09;;;3.90;70.08
76311;BME280;65120;59.304;18.294;2023-04-15T03:41:14;102265.31;;;3.91;70.29
76311;BME280;65120;59.304;18.294;2023-04-15T03:43:43;102271.44;;;3.93;70.41
76311;BME280;65120;59.304;18.294;2023-04-15T03:46:10;102246.19;;;3.86;69.84
76311;BME280;65120;59.304;18.294;2023-04-15T03:48:37;102264.56;;;3.95;70.10
76311;BME280;65120;59.304;18.294;2023-04-15T03:51:03;102260.34;;;3.97;70.07
76311;BME280;65120;59.304;18.294;2023-04-15T03:53:31;102261.22;;;3.97;69.72
76311;BME280;65120;59.304;18.294;2023-04-15T03:55:57;102256.09;;;3.99;69.82
76311;BME280;65120;59.304;18.294;2023-04-15T03:58:24;102256.88;;;3.96;69.44
76311;BME280;65120;59.304;18.294;2023-04-15T04:00:52;102259.50;;;3.98;70.02
76311;BME280;65120;59.304;18.294;2023-04-15T04:03:20;102257.84;;;4.00;69.89
76311;BME280;65120;59.304;18.294;2023-04-15T04:05:47;102258.72;;;4.00;69.76
76311;BME280;65120;59.304;18.294;2023-04-15T04:08:14;102260.44;;;4.00;69.75
76311;BME280;65120;59.304;18.294;2023-04-15T04:10:41;102260.50;;;4.01;69.72
76311;BME280;65120;59.304;18.294;2023-04-15T04:13:08;102270.88;;;4.03;69.65
76311;BME280;65120;59.304;18.294;2023-04-15T04:15:35;102268.34;;;4.04;69.57
76311;BME280;65120;59.304;18.294;2023-04-15T04:18:03;102272.69;;;4.05;69.32
76311;BME280;65120;59.304;18.294;2023-04-15T04:20:30;102276.16;;;4.06;69.60
76311;BME280;65120;59.304;18.294;2023-04-15T04:22:57;102277.09;;;4.08;69.70
76311;BME280;65120;59.304;18.294;2023-04-15T04:25:24;102279.66;;;4.08;69.32
76311;BME280;65120;59.304;18.294;2023-04-15T04:27:54;102287.47;;;4.10;69.51
76311;BME280;65120;59.304;18.294;2023-04-15T04:30:21;102280.59;;;4.10;69.60
76311;BME280;65120;59.304;18.294;2023-04-15T04:32:48;102276.25;;;4.09;69.40
76311;BME280;65120;59.304;18.294;2023-04-15T04:35:17;102288.38;;;4.10;69.63
76311;BME280;65120;59.304;18.294;2023-04-15T04:37:44;102282.25;;;4.08;69.45
76311;BME280;65120;59.304;18.294;2023-04-15T04:40:11;102292.63;;;4.10;69.52
76311;BME280;65120;59.304;18.294;2023-04-15T04:42:38;102298.13;;;4.19;69.53
76311;BME280;65120;59.304;18.294;2023-04-15T04:45:06;102287.72;;;4.17;69.67
76311;BME280;65120;59.304;18.294;2023-04-15T04:47:33;102303.44;;;4.23;69.42
76311;BME280;65120;59.304;18.294;2023-04-15T04:50:00;102302.72;;;4.27;69.53
76311;BME280;65120;59.304;18.294;2023-04-15T04:52:28;102302.81;;;4.31;69.43
76311;BME280;65120;59.304;18.294;2023-04-15T04:54:55;102299.38;;;4.32;69.47
76311;BME280;65120;59.304;18.294;2023-04-15T04:57:22;102306.44;;;4.37;69.02
76311;BME280;65120;59.304;18.294;2023-04-15T04:59:49;102308.25;;;4.40;69.11
76311;BME280;65120;59.304;18.294;2023-04-15T05:02:15;102304.91;;;4.42;68.87
76311;BME280;65120;59.304;18.294;2023-04-15T05:04:42;102310.16;;;4.45;68.98
76311;BME280;65120;59.304;18.294;2023-04-15T05:07:09;102309.38;;;4.48;68.78
76311;BME280;65120;59.304;18.294;2023-04-15T05:09:37;102314.66;;;4.51;68.55
76311;BME280;65120;59.304;18.294;2023-04-15T05:12:05;102300.75;;;4.47;68.57
76311;BME280;65120;59.304;18.294;2023-04-15T05:14:33;102306.13;;;4.55;68.46
76311;BME280;65120;59.304;18.294;2023-04-15T05:17:00;102310.53;;;4.58;68.40
76311;BME280;65120;59.304;18.294;2023-04-15T05:19:27;102304.41;;;4.54;68.39
76311;BME280;65120;59.304;18.294;2023-04-15T05:21:53;102305.41;;;4.59;68.17
76311;BME280;65120;59.304;18.294;2023-04-15T05:24:20;102320.19;;;4.63;68.14
76311;BME280;65120;59.304;18.294;2023-04-15T05:26:49;102312.50;;;4.65;67.75
76311;BME280;65120;59.304;18.294;2023-04-15T05:29:15;102297.75;;;4.62;67.93
76311;BME280;65120;59.304;18.294;2023-04-15T05:31:42;102313.47;;;4.68;67.69
76311;BME280;65120;59.304;18.294;2023-04-15T05:34:09;102304.84;;;4.69;67.89
76311;BME280;65120;59.304;18.294;2023-04-15T05:36:37;102306.63;;;4.70;67.68
76311;BME280;65120;59.304;18.294;2023-04-15T05:39:03;102309.25;;;4.72;67.55
76311;BME280;65120;59.304;18.294;2023-04-15T05:41:31;102305.00;;;4.74;67.38
76311;BME280;65120;59.304;18.294;2023-04-15T05:44:00;102309.34;;;4.75;67.19
76311;BME280;65120;59.304;18.294;2023-04-15T05:46:27;102302.50;;;4.77;67.15
76311;BME280;65120;59.304;18.294;2023-04-15T05:48:54;102311.19;;;4.79;67.13
76311;BME280;65120;59.304;18.294;2023-04-15T05:51:20;102315.59;;;4.82;66.94
76311;BME280;65120;59.304;18.294;2023-04-15T05:53:47;102299.91;;;4.77;67.14
76311;BME280;65120;59.304;18.294;2023-04-15T05:56:14;102306.19;;;4.85;66.90
76311;BME280;65120;59.304;18.294;2023-04-15T05:58:41;102314.91;;;4.87;67.08
76311;BME280;65120;59.304;18.294;2023-04-15T06:01:10;102315.84;;;4.91;66.71
76311;BME280;65120;59.304;18.294;2023-04-15T06:03:37;102317.59;;;4.92;66.64
76311;BME280;65120;59.304;18.294;2023-04-15T06:06:04;102316.81;;;4.94;66.66
76311;BME280;65120;59.304;18.294;2023-04-15T06:08:32;102317.81;;;4.98;66.46
76311;BME280;65120;59.304;18.294;2023-04-15T06:10:58;102324.75;;;4.99;66.50
76311;BME280;65120;59.304;18.294;2023-04-15T06:13:25;102328.38;;;5.06;66.30
76311;BME280;65120;59.304;18.294;2023-04-15T06:15:52;102330.19;;;5.08;66.09
76311;BME280;65120;59.304;18.294;2023-04-15T06:18:21;102334.56;;;5.11;65.74
76311;BME280;65120;59.304;18.294;2023-04-15T06:20:48;102335.53;;;5.14;65.61
76311;BME280;65120;59.304;18.294;2023-04-15T06:23:14;102334.81;;;5.18;65.61
76311;BME280;65120;59.304;18.294;2023-04-15T06:25:41;102340.88;;;5.21;65.50
76311;BME280;65120;59.304;18.294;2023-04-15T06:28:08;102334.03;;;5.23;65.29
76311;BME280;65120;59.304;18.294;2023-04-15T06:30:35;102332.31;;;5.23;65.13
76311;BME280;65120;59.304;18.294;2023-04-15T06:33:04;102341.09;;;5.27;64.91
76311;BME280;65120;59.304;18.294;2023-04-15T06:35:33;102330.72;;;5.27;64.74
76311;BME280;65120;59.304;18.294;2023-04-15T06:38:00;102343.78;;;5.31;64.57
76311;BME280;65120;59.304;18.294;2023-04-15T06:40:26;102352.50;;;5.33;64.46
76311;BME280;65120;59.304;18.294;2023-04-15T06:42:54;102346.53;;;5.36;64.23
76311;BME280;65120;59.304;18.294;2023-04-15T06:45:21;102356.97;;;5.39;64.30
76311;BME280;65120;59.304;18.294;2023-04-15T06:47:47;102357.94;;;5.43;64.05
76311;BME280;65120;59.304;18.294;2023-04-15T06:50:14;102350.16;;;5.43;63.70
76311;BME280;65120;59.304;18.294;2023-04-15T06:52:43;102358.97;;;5.49;64.02
76311;BME280;65120;59.304;18.294;2023-04-15T06:55:10;102369.53;;;5.55;64.00
76311;BME280;65120;59.304;18.294;2023-04-15T06:57:39;102364.44;;;5.58;63.62
76311;BME280;65120;59.304;18.294;2023-04-15T07:00:07;102366.41;;;5.69;63.56
76311;BME280;65120;59.304;18.294;2023-04-15T07:02:35;102357.13;;;5.77;63.28
76311;BME280;65120;59.304;18.294;2023-04-15T07:05:02;102359.16;;;5.89;63.40
76311;BME280;65120;59.304;18.294;2023-04-15T07:07:29;102364.66;;;5.98;62.84
76311;BME280;65120;59.304;18.294;2023-04-15T07:09:57;102364.09;;;6.10;62.79
76311;BME280;65120;59.304;18.294;2023-04-15T07:12:26;102370.41;;;6.21;62.70
76311;BME280;65120;59.304;18.294;2023-04-15T07:14:53;102367.19;;;6.31;62.05
76311;BME280;65120;59.304;18.294;2023-04-15T07:17:20;102370.13;;;6.43;61.73
76311;BME280;65120;59.304;18.294;2023-04-15T07:19:50;102362.53;;;6.52;61.54
76311;BME280;65120;59.304;18.294;2023-04-15T07:22:16;102373.25;;;6.66;61.45
76311;BME280;65120;59.304;18.294;2023-04-15T07:24:43;102368.34;;;6.80;61.43
76311;BME280;65120;59.304;18.294;2023-04-15T07:27:12;102373.84;;;6.94;61.12
76311;BME280;65120;59.304;18.294;2023-04-15T07:29:44;102369.88;;;7.10;61.21
76311;BME280;65120;59.304;18.294;2023-04-15T07:32:11;102367.53;;;7.22;60.22
76311;BME280;65120;59.304;18.294;2023-04-15T07:34:38;102369.44;;;7.31;60.25
76311;BME280;65120;59.304;18.294;2023-04-15T07:37:05;102374.06;;;7.44;59.63
76311;BME280;65120;59.304;18.294;2023-04-15T07:39:32;102376.00;;;7.54;59.08
76311;BME280;65120;59.304;18.294;2023-04-15T07:41:59;102384.91;;;7.67;58.83
76311;BME280;65120;59.304;18.294;2023-04-15T07:44:27;102378.19;;;7.78;58.44
76311;BME280;65120;59.304;18.294;2023-04-15T07:46:55;102383.59;;;7.89;58.68
76311;BME280;65120;59.304;18.294;2023-04-15T07:49:22;102396.88;;;8.04;57.86
76311;BME280;65120;59.304;18.294;2023-04-15T07:51:49;102388.41;;;8.16;58.08
76311;BME280;65120;59.304;18.294;2023-04-15T07:54:15;102392.06;;;8.27;57.49
76311;BME280;65120;59.304;18.294;2023-04-15T07:56:42;102394.94;;;8.40;57.59
76311;BME280;65120;59.304;18.294;2023-04-15T07:59:09;102389.88;;;8.50;56.73
76311;BME280;65120;59.304;18.294;2023-04-15T08:01:37;102383.97;;;8.61;56.76
76311;BME280;65120;59.304;18.294;2023-04-15T08:04:04;102364.81;;;8.59;56.86
76311;BME280;65120;59.304;18.294;2023-04-15T08:06:31;102396.47;;;8.85;56.16
76311;BME280;65120;59.304;18.294;2023-04-15T08:08:58;102392.28;;;8.96;56.14
76311;BME280;65120;59.304;18.294;2023-04-15T08:11:26;102386.31;;;9.05;55.44
76311;BME280;65120;59.304;18.294;2023-04-15T08:13:53;102377.75;;;9.12;54.54
76311;BME280;65120;59.304;18.294;2023-04-15T08:16:21;102381.25;;;9.15;55.00
76311;BME280;65120;59.304;18.294;2023-04-15T08:18:51;102377.88;;;9.21;55.02
76311;BME280;65120;59.304;18.294;2023-04-15T08:21:18;102376.16;;;9.24;54.66
76311;BME280;65120;59.304;18.294;2023-04-15T08:23:47;102382.28;;;9.27;54.53
76311;BME280;65120;59.304;18.294;2023-04-15T08:26:14;102377.94;;;9.27;54.53
76311;BME280;65120;59.304;18.294;2023-04-15T08:28:43;102385.78;;;9.29;54.39
76311;BME280;65120;59.304;18.294;2023-04-15T08:31:11;102377.97;;;9.29;54.25
76311;BME280;65120;59.304;18.294;2023-04-15T08:33:38;102370.97;;;9.26;53.94
76311;BME280;65120;59.304;18.294;2023-04-15T08:36:06;102370.91;;;9.21;52.80
76311;BME280;65120;59.304;18.294;2023-04-15T08:38:34;102380.47;;;9.19;53.31
76311;BME280;65120;59.304;18.294;2023-04-15T08:41:03;102373.44;;;9.15;52.83
76311;BME280;65120;59.304;18.294;2023-04-15T08:43:34;102369.06;;;9.11;53.31
76311;BME280;65120;59.304;18.294;2023-04-15T08:46:01;102375.94;;;9.06;53.18
76311;BME280;65120;59.304;18.294;2023-04-15T08:48:32;102375.00;;;9.01;52.41
76311;BME280;65120;59.304;18.294;2023-04-15T08:51:00;102366.97;;;8.87;52.62
76311;BME280;65120;59.304;18.294;2023-04-15T08:53:29;102382.69;;;8.92;52.97
76311;BME280;65120;59.304;18.294;2023-04-15T08:55:59;102377.44;;;8.90;52.73
76311;BME280;65120;59.304;18.294;2023-04-15T08:58:30;102384.38;;;8.88;52.72
76311;BME280;65120;59.304;18.294;2023-04-15T09:00:57;102387.00;;;8.88;53.31
76311;BME280;65120;59.304;18.294;2023-04-15T09:03:24;102385.22;;;8.86;52.93
76311;BME280;65120;59.304;18.294;2023-04-15T09:05:52;102379.97;;;8.83;52.57
76311;BME280;65120;59.304;18.294;2023-04-15T09:08:19;102387.78;;;8.84;52.89
76311;BME280;65120;59.304;18.294;2023-04-15T09:10:47;102384.34;;;8.85;53.36
76311;BME280;65120;59.304;18.294;2023-04-15T09:13:15;102391.31;;;8.88;53.03
76311;BME280;65120;59.304;18.294;2023-04-15T09:15:42;102378.31;;;8.89;53.12
76311;BME280;65120;59.304;18.294;2023-04-15T09:18:10;102388.78;;;8.91;53.23
76311;BME280;65120;59.304;18.294;2023-04-15T09:20:38;102387.03;;;8.93;53.24
76311;BME280;65120;59.304;18.294;2023-04-15T09:23:13;102386.19;;;8.94;53.31
76311;BME280;65120;59.304;18.294;2023-04-15T09:25:41;102402.72;;;8.96;53.18
76311;BME280;65120;59.304;18.294;2023-04-15T09:28:10;102393.16;;;8.95;53.45
76311;BME280;65120;59.304;18.294;2023-04-15T09:30:37;102407.94;;;8.96;53.14
76311;BME280;65120;59.304;18.294;2023-04-15T09:33:04;102408.78;;;8.95;53.17
76311;BME280;65120;59.304;18.294;2023-04-15T09:35:33;102403.59;;;8.96;53.35
76311;BME280;65120;59.304;18.294;2023-04-15T09:38:05;102408.78;;;8.95;53.01
76311;BME280;65120;59.304;18.294;2023-04-15T09:40:33;102413.97;;;8.92;53.32
76311;BME280;65120;59.304;18.294;2023-04-15T09:43:01;102411.28;;;8.86;52.85
76311;BME280;65120;59.304;18.294;2023-04-15T09:45:30;102418.28;;;8.90;53.26
76311;BME280;65120;59.304;18.294;2023-04-15T09:47:57;102413.91;;;8.89;53.62
76311;BME280;65120;59.304;18.294;2023-04-15T09:50:27;102419.97;;;8.86;53.37
76311;BME280;65120;59.304;18.294;2023-04-15T09:52:55;102418.19;;;8.84;53.07
76311;BME280;65120;59.304;18.294;2023-04-15T09:55:22;102418.19;;;8.84;53.31
76311;BME280;65120;59.304;18.294;2023-04-15T09:57:49;102425.09;;;8.80;53.00
76311;BME280;65120;59.304;18.294;2023-04-15T10:00:16;102422.44;;;8.77;53.09
76311;BME280;65120;59.304;18.294;2023-04-15T10:02:46;102420.66;;;8.74;53.57
76311;BME280;65120;59.304;18.294;2023-04-15T10:05:16;102423.16;;;8.68;53.64
76311;BME280;65120;59.304;18.294;2023-04-15T10:07:45;102422.22;;;8.65;53.47
76311;BME280;65120;59.304;18.294;2023-04-15T10:10:13;102427.44;;;8.63;53.75
76311;BME280;65120;59.304;18.294;2023-04-15T10:12:41;102425.69;;;8.64;53.90
76311;BME280;65120;59.304;18.294;2023-04-15T10:15:14;102423.03;;;8.62;53.32
76311;BME280;65120;59.304;18.294;2023-04-15T10:17:44;102419.47;;;8.54;53.41
76311;BME280;65120;59.304;18.294;2023-04-15T10:20:11;102426.47;;;8.58;53.52
76311;BME280;65120;59.304;18.294;2023-04-15T10:22:39;102431.63;;;8.55;53.66
76311;BME280;65120;59.304;18.294;2023-04-15T10:25:08;102432.44;;;8.52;53.42
76311;BME280;65120;59.304;18.294;2023-04-15T10:27:36;102439.41;;;8.52;53.52
76311;BME280;65120;59.304;18.294;2023-04-15T10:30:06;102442.81;;;8.49;52.70
76311;BME280;65120;59.304;18.294;2023-04-15T10:32:33;102435.81;;;8.45;53.07
76311;BME280;65120;59.304;18.294;2023-04-15T10:35:03;102441.00;;;8.44;52.78
76311;BME280;65120;59.304;18.294;2023-04-15T10:37:35;102442.69;;;8.42;53.07
76311;BME280;65120;59.304;18.294;2023-04-15T10:40:23;102448.75;;;8.41;52.67
76311;BME280;65120;59.304;18.294;2023-04-15T10:42:50;102446.06;;;8.38;52.93
76311;BME280;65120;59.304;18.294;2023-04-15T10:45:18;102447.75;;;8.36;52.87
76311;BME280;65120;59.304;18.294;2023-04-15T10:47:45;102448.63;;;8.34;53.33
76311;BME280;65120;59.304;18.294;2023-04-15T10:50:13;102447.75;;;8.34;53.88
76311;BME280;65120;59.304;18.294;2023-04-15T10:52:40;102456.38;;;8.33;53.73
76311;BME280;65120;59.304;18.294;2023-04-15T10:55:19;102448.56;;;8.31;53.43
76311;BME280;65120;59.304;18.294;2023-04-15T10:57:46;102451.13;;;8.30;52.80
76311;BME280;65120;59.304;18.294;2023-04-15T11:00:18;102456.28;;;8.27;53.16
76311;BME280;65120;59.304;18.294;2023-04-15T11:02:47;102455.41;;;8.26;52.25
76311;BME280;65120;59.304;18.294;2023-04-15T11:05:19;102456.22;;;8.24;52.43
76311;BME280;65120;59.304;18.294;2023-04-15T11:07:52;102461.38;;;8.22;52.60
76311;BME280;65120;59.304;18.294;2023-04-15T11:10:49;102462.25;;;8.21;52.87
76311;BME280;65120;59.304;18.294;2023-04-15T11:13:22;102463.06;;;8.17;53.14
76311;BME280;65120;59.304;18.294;2023-04-15T11:15:50;102466.50;;;8.16;53.36
76311;BME280;65120;59.304;18.294;2023-04-15T11:18:20;102468.22;;;8.16;53.13
76311;BME280;65120;59.304;18.294;2023-04-15T11:20:50;102470.78;;;8.13;53.27
76311;BME280;65120;59.304;18.294;2023-04-15T11:23:26;102481.22;;;8.14;52.96
76311;BME280;65120;59.304;18.294;2023-04-15T11:25:54;102477.72;;;8.12;53.38
76311;BME280;65120;59.304;18.294;2023-04-15T11:28:25;102474.19;;;8.10;53.54
76311;BME280;65120;59.304;18.294;2023-04-15T11:30:52;102476.78;;;8.10;53.65
76311;BME280;65120;59.304;18.294;2023-04-15T11:33:20;102480.19;;;8.06;53.16
76311;BME280;65120;59.304;18.294;2023-04-15T11:35:49;102480.16;;;8.04;53.10
76311;BME280;65120;59.304;18.294;2023-04-15T11:38:18;102487.94;;;8.03;53.19
76311;BME280;65120;59.304;18.294;2023-04-15T11:40:45;102486.16;;;8.02;53.09
76311;BME280;65120;59.304;18.294;2023-04-15T11:43:15;102484.38;;;7.99;53.20
76311;BME280;65120;59.304;18.294;2023-04-15T11:45:51;102487.84;;;7.98;52.78
76311;BME280;65120;59.304;18.294;2023-04-15T11:48:18;102493.91;;;7.97;53.46
76311;BME280;65120;59.304;18.294;2023-04-15T11:50:45;102499.00;;;7.93;53.39
76311;BME280;65120;59.304;18.294;2023-04-15T11:53:19;102494.59;;;7.88;53.32
76311;BME280;65120;59.304;18.294;2023-04-15T11:55:48;102491.16;;;7.89;53.55
76311;BME280;65120;59.304;18.294;2023-04-15T11:58:16;102485.88;;;7.86;53.40
76311;BME280;65120;59.304;18.294;2023-04-15T12:00:48;102494.44;;;7.82;53.00
76311;BME280;65120;59.304;18.294;2023-04-15T12:03:21;102496.16;;;7.80;53.06
76311;BME280;65120;59.304;18.294;2023-04-15T12:06:08;102490.06;;;7.78;52.79
76311;BME280;65120;59.304;18.294;2023-04-15T12:11:36;102492.53;;;7.72;52.48
76311;BME280;65120;59.304;18.294;2023-04-15T12:14:09;102501.16;;;7.71;52.10
76311;BME280;65120;59.304;18.294;2023-04-15T12:16:39;102492.34;;;7.63;51.98
76311;BME280;65120;59.304;18.294;2023-04-15T12:19:09;102499.34;;;7.67;52.34
76311;BME280;65120;59.304;18.294;2023-04-15T12:21:37;102488.81;;;7.61;52.33
76311;BME280;65120;59.304;18.294;2023-04-15T12:24:06;102502.81;;;7.66;52.85
76311;BME280;65120;59.304;18.294;2023-04-15T12:26:36;102494.09;;;7.64;52.91
76311;BME280;65120;59.304;18.294;2023-04-15T12:29:05;102501.91;;;7.65;52.84
76311;BME280;65120;59.304;18.294;2023-04-15T12:31:34;102500.16;;;7.63;52.93
76311;BME280;65120;59.304;18.294;2023-04-15T12:34:01;102494.03;;;7.62;52.86
76311;BME280;65120;59.304;18.294;2023-04-15T12:36:30;102505.38;;;7.64;52.47
76311;BME280;65120;59.304;18.294;2023-04-15T12:39:01;102503.63;;;7.65;52.49
76311;BME280;65120;59.304;18.294;2023-04-15T12:41:29;102506.28;;;7.66;52.50
76311;BME280;65120;59.304;18.294;2023-04-15T12:43:57;102508.00;;;7.66;52.62
76311;BME280;65120;59.304;18.294;2023-04-15T12:46:27;102512.28;;;7.64;52.34
76311;BME280;65120;59.304;18.294;2023-04-15T12:48:54;102509.69;;;7.64;51.67
76311;BME280;65120;59.304;18.294;2023-04-15T12:51:20;102502.69;;;7.61;51.17
76311;BME280;65120;59.304;18.294;2023-04-15T12:53:48;102503.50;;;7.57;51.39
76311;BME280;65120;59.304;18.294;2023-04-15T12:56:15;102499.16;;;7.58;51.45
76311;BME280;65120;59.304;18.294;2023-04-15T12:58:42;102507.78;;;7.57;50.98